Time;durP1;ratioP1;P1;durP2;ratioP2;P2;SDS_P1;SDS_P2;PMS_P1;PMS_P2;Temp;Humidity;BMP_temperature;BMP_pressure;BME280_temperature;BME280_humidity;BME280_pressure;Samples;Min_cycle;Max_cycle;Signal;HPM_P1;HPM_P2
2023/12/06 00:00:30;;;;;;;45.63;23.83;;;4.00;99.90;;;;;;5066158;28;20087;-77
2023/12/06 00:02:56;;;;;;;40.85;24.52;;;4.00;99.90;;;;;;5063263;28;20102;-78
2023/12/06 00:05:21;;;;;;;46.72;23.23;;;4.00;99.90;;;;;;5063257;28;20024;-78
2023/12/06 00:07:47;;;;;;;43.17;24.70;;;4.00;99.90;;;;;;5072201;28;20028;-78
2023/12/06 00:10:12;;;;;;;42.83;24.05;;;4.00;99.90;;;;;;5072662;28;20063;-77
2023/12/06 00:12:38;;;;;;;41.28;24.30;;;4.00;99.90;;;;;;5083750;28;20489;-77
2023/12/06 00:15:04;;;;;;;44.63;23.35;;;4.00;99.90;;;;;;5082994;28;20063;-77
2023/12/06 00:17:30;;;;;;;42.38;23.63;;;4.00;99.90;;;;;;5062660;28;20017;-77
2023/12/06 00:19:55;;;;;;;47.40;24.00;;;4.00;99.90;;;;;;5071215;28;20046;-77
2023/12/06 00:22:21;;;;;;;40.60;22.77;;;4.00;99.90;;;;;;5076234;28;20461;-77
2023/12/06 00:24:46;;;;;;;42.67;23.92;;;4.00;99.90;;;;;;5068610;28;20032;-77
2023/12/06 00:27:12;;;;;;;47.42;23.83;;;4.00;99.90;;;;;;5069380;28;20505;-78
2023/12/06 00:29:37;;;;;;;38.22;22.73;;;4.10;99.90;;;;;;5076296;28;20020;-77
2023/12/06 00:32:03;;;;;;;41.30;24.05;;;4.10;99.90;;;;;;5083905;28;20123;-77
2023/12/06 00:34:29;;;;;;;41.67;23.15;;;4.10;99.90;;;;;;5070844;28;20024;-78
2023/12/06 00:36:54;;;;;;;43.45;24.15;;;4.10;99.90;;;;;;5058368;28;20036;-77
2023/12/06 00:39:20;;;;;;;40.75;22.70;;;4.10;99.90;;;;;;5078373;28;20021;-78
2023/12/06 00:41:45;;;;;;;44.35;23.58;;;4.10;99.90;;;;;;5074039;28;20478;-77
2023/12/06 00:44:11;;;;;;;41.90;22.92;;;4.10;99.90;;;;;;5075712;28;20375;-78
2023/12/06 00:46:37;;;;;;;39.22;23.40;;;4.10;99.90;;;;;;5066921;28;20032;-77
2023/12/06 00:49:03;;;;;;;38.80;22.58;;;4.10;99.90;;;;;;5083440;28;20046;-78
2023/12/06 00:51:29;;;;;;;38.65;22.27;;;4.10;99.90;;;;;;5070761;28;20012;-77
2023/12/06 00:53:55;;;;;;;43.45;23.52;;;4.20;99.90;;;;;;5083565;28;20537;-77
2023/12/06 00:56:20;;;;;;;40.53;23.80;;;4.10;99.90;;;;;;5088155;28;20051;-77
2023/12/06 00:58:46;;;;;;;39.00;22.27;;;4.20;99.90;;;;;;5087172;28;20004;-77
2023/12/06 01:01:12;;;;;;;38.90;22.92;;;4.20;99.90;;;;;;5075047;28;20399;-77
2023/12/06 01:03:40;;;;;;;41.08;23.17;;;4.20;99.90;;;;;;5061203;28;20040;-77
2023/12/06 01:06:06;;;;;;;40.08;24.33;;;4.20;99.90;;;;;;5068782;28;20045;-77
2023/12/06 01:08:31;;;;;;;38.50;23.42;;;4.20;99.90;;;;;;5086691;28;20024;-78
2023/12/06 01:10:57;;;;;;;39.15;23.38;;;4.20;99.90;;;;;;5089780;28;20467;-77
2023/12/06 01:13:22;;;;;;;42.67;23.30;;;4.20;99.90;;;;;;5083984;28;20394;-78
2023/12/06 01:15:48;;;;;;;41.03;25.05;;;4.20;99.90;;;;;;5074952;28;20454;-75
2023/12/06 01:18:13;;;;;;;37.83;23.05;;;4.30;99.90;;;;;;5071783;28;20490;-75
2023/12/06 01:20:39;;;;;;;47.38;23.77;;;4.30;99.90;;;;;;5057792;28;20027;-78
2023/12/06 01:23:06;;;;;;;40.25;23.42;;;4.30;99.90;;;;;;5061936;28;20473;-78
2023/12/06 01:25:35;;;;;;;44.45;23.55;;;4.30;99.90;;;;;;5083679;28;20024;-77
2023/12/06 01:28:01;;;;;;;41.15;23.13;;;4.30;99.90;;;;;;5071524;28;20024;-78
2023/12/06 01:30:26;;;;;;;43.33;23.08;;;4.30;99.90;;;;;;5067593;28;20472;-77
2023/12/06 01:32:52;;;;;;;42.25;24.33;;;4.30;99.90;;;;;;5075127;28;20483;-78
2023/12/06 01:35:18;;;;;;;40.30;24.08;;;4.20;99.90;;;;;;5087103;28;20088;-77
2023/12/06 01:37:43;;;;;;;46.08;25.13;;;4.20;99.90;;;;;;5064870;28;20813;-78
2023/12/06 01:40:09;;;;;;;47.65;25.70;;;4.20;99.90;;;;;;5072633;28;20032;-78
2023/12/06 01:42:35;;;;;;;42.78;24.25;;;4.20;99.90;;;;;;5067445;28;20047;-78
2023/12/06 01:45:01;;;;;;;45.42;25.90;;;4.20;99.90;;;;;;5073527;28;20092;-77
2023/12/06 01:47:29;;;;;;;43.22;24.70;;;4.20;99.90;;;;;;5067177;28;20100;-77
2023/12/06 01:49:57;;;;;;;43.20;25.52;;;4.20;99.90;;;;;;5073885;28;20053;-77
2023/12/06 01:52:23;;;;;;;46.33;25.90;;;4.20;99.90;;;;;;5064173;28;20024;-77
2023/12/06 01:54:49;;;;;;;46.70;25.05;;;4.20;99.90;;;;;;5073199;28;20348;-78
2023/12/06 01:57:15;;;;;;;44.08;26.02;;;4.20;99.90;;;;;;5077111;28;20046;-77
2023/12/06 01:59:43;;;;;;;48.67;25.20;;;4.20;99.90;;;;;;5074810;28;20024;-77
2023/12/06 02:02:11;;;;;;;44.55;25.75;;;4.10;99.90;;;;;;5067021;28;20052;-77
2023/12/06 02:04:38;;;;;;;48.45;26.85;;;4.10;99.90;;;;;;5079046;28;20031;-77
2023/12/06 02:07:03;;;;;;;45.28;26.70;;;4.10;99.90;;;;;;5066857;28;20369;-77
2023/12/06 02:09:29;;;;;;;48.92;27.30;;;4.10;99.90;;;;;;5082588;28;20027;-77
2023/12/06 02:11:55;;;;;;;46.17;27.50;;;4.10;99.90;;;;;;5064843;28;20028;-77
2023/12/06 02:14:20;;;;;;;46.05;25.60;;;4.10;99.90;;;;;;5067682;28;20025;-77
2023/12/06 02:16:46;;;;;;;46.67;26.60;;;4.10;99.90;;;;;;5069425;28;20048;-77
2023/12/06 02:19:22;;;;;;;44.42;24.48;;;4.10;99.90;;;;;;5064210;28;20028;-78
2023/12/06 02:21:49;;;;;;;32.47;19.92;;;4.10;99.90;;;;;;5064602;28;20100;-77
2023/12/06 02:24:15;;;;;;;30.67;17.42;;;4.20;99.90;;;;;;5074517;28;20521;-78
2023/12/06 02:26:41;;;;;;;27.55;15.50;;;4.20;99.90;;;;;;5073295;28;20012;-78
2023/12/06 02:29:06;;;;;;;23.05;13.52;;;4.30;99.90;;;;;;5062887;28;20060;-77
2023/12/06 02:31:32;;;;;;;24.67;13.95;;;4.40;99.90;;;;;;5080532;28;20037;-78
2023/12/06 02:34:03;;;;;;;21.23;12.80;;;4.50;99.90;;;;;;5066297;28;20055;-77
2023/12/06 02:36:29;;;;;;;22.75;11.15;;;4.50;99.90;;;;;;5064553;28;20467;-77
2023/12/06 02:38:55;;;;;;;20.63;11.35;;;4.60;99.90;;;;;;5080374;28;20063;-77
2023/12/06 02:41:24;;;;;;;19.20;11.48;;;4.60;99.90;;;;;;5076489;28;20056;-77
2023/12/06 02:43:50;;;;;;;20.15;10.77;;;4.70;99.90;;;;;;5069085;28;21066;-78
2023/12/06 02:46:16;;;;;;;17.77;11.00;;;4.70;99.90;;;;;;5061090;28;20031;-77
2023/12/06 02:48:41;;;;;;;20.08;11.02;;;4.70;99.90;;;;;;5073198;28;20029;-77
2023/12/06 02:51:07;;;;;;;19.63;11.70;;;4.70;99.90;;;;;;5086208;28;20518;-77
2023/12/06 02:53:32;;;;;;;19.02;11.13;;;4.70;99.90;;;;;;5075006;28;20136;-77
2023/12/06 02:55:58;;;;;;;18.27;11.52;;;4.70;99.90;;;;;;5065281;28;20024;-77
2023/12/06 02:58:23;;;;;;;23.10;11.18;;;4.80;99.90;;;;;;5062662;28;20016;-77
2023/12/06 03:00:50;;;;;;;21.17;12.00;;;4.80;99.90;;;;;;5069201;28;20017;-77
2023/12/06 03:03:16;;;;;;;20.23;11.65;;;4.80;99.90;;;;;;5076269;28;20082;-78
2023/12/06 03:05:41;;;;;;;19.50;11.60;;;4.80;99.90;;;;;;5073550;28;20017;-78
2023/12/06 03:08:07;;;;;;;18.92;11.23;;;4.80;99.90;;;;;;5077977;28;20107;-77
2023/12/06 03:10:33;;;;;;;19.58;10.68;;;4.80;99.90;;;;;;5084188;28;20028;-77
2023/12/06 03:12:58;;;;;;;18.13;10.93;;;4.80;99.90;;;;;;5069364;28;20029;-77
2023/12/06 03:15:24;;;;;;;19.50;10.93;;;4.80;99.90;;;;;;5067688;28;20056;-77
2023/12/06 03:17:49;;;;;;;19.13;11.48;;;4.80;99.90;;;;;;5074546;28;20025;-77
2023/12/06 03:20:15;;;;;;;23.92;11.90;;;4.80;99.90;;;;;;5071191;28;20547;-78
2023/12/06 03:22:41;;;;;;;23.27;12.70;;;4.80;99.90;;;;;;5073844;28;20016;-78
2023/12/06 03:25:07;;;;;;;22.38;13.00;;;4.80;99.90;;;;;;5083026;28;20028;-77
2023/12/06 03:27:32;;;;;;;25.10;13.60;;;4.80;99.90;;;;;;5084348;28;20029;-77
2023/12/06 03:29:58;;;;;;;27.88;12.63;;;4.80;99.90;;;;;;5089535;28;20020;-78
2023/12/06 03:32:24;;;;;;;23.25;12.93;;;4.80;99.90;;;;;;5075243;28;20100;-78
2023/12/06 03:34:49;;;;;;;28.15;14.38;;;4.90;99.90;;;;;;5075379;28;20013;-78
2023/12/06 03:37:15;;;;;;;30.92;13.98;;;4.90;99.90;;;;;;5061916;28;20032;-77
2023/12/06 03:39:40;;;;;;;31.85;14.43;;;4.90;99.90;;;;;;5071856;28;20383;-77
2023/12/06 03:42:06;;;;;;;26.98;14.60;;;4.90;99.90;;;;;;5077508;28;20012;-77
2023/12/06 03:44:31;;;;;;;27.35;14.77;;;4.90;99.90;;;;;;5086107;28;20475;-77
2023/12/06 03:46:57;;;;;;;28.70;14.68;;;4.90;99.90;;;;;;5094043;28;20040;-78
2023/12/06 03:49:23;;;;;;;26.40;14.20;;;4.90;99.90;;;;;;5073358;28;20162;-77
2023/12/06 03:51:49;;;;;;;28.65;14.85;;;4.90;99.90;;;;;;5077234;28;20024;-78
2023/12/06 03:54:14;;;;;;;29.85;14.10;;;4.90;99.90;;;;;;5069251;28;20029;-78
2023/12/06 03:56:41;;;;;;;26.88;14.07;;;4.90;99.90;;;;;;5087725;28;20035;-78
2023/12/06 03:59:06;;;;;;;28.00;13.23;;;4.90;99.90;;;;;;5090217;28;20008;-78
2023/12/06 04:01:32;;;;;;;26.60;13.40;;;5.00;99.90;;;;;;5074022;28;20052;-78
2023/12/06 04:03:58;;;;;;;30.08;13.07;;;5.00;99.90;;;;;;5072135;28;20429;-78
2023/12/06 04:06:23;;;;;;;25.05;11.85;;;5.00;99.90;;;;;;5065345;28;20472;-77
2023/12/06 04:08:49;;;;;;;24.90;12.25;;;5.00;99.90;;;;;;5066556;28;20057;-77
2023/12/06 04:11:14;;;;;;;26.02;11.68;;;5.00;99.90;;;;;;5069117;28;20029;-77
2023/12/06 04:13:40;;;;;;;24.92;11.52;;;5.00;99.90;;;;;;5062066;28;20024;-77
2023/12/06 04:16:06;;;;;;;25.13;10.68;;;5.00;99.90;;;;;;5073066;28;20043;-77
2023/12/06 04:18:32;;;;;;;25.42;11.02;;;5.00;99.90;;;;;;5071280;28;20021;-77
2023/12/06 04:20:57;;;;;;;22.33;10.80;;;5.00;99.90;;;;;;5058522;28;20078;-77
2023/12/06 04:23:23;;;;;;;22.20;10.82;;;5.00;99.90;;;;;;5065914;28;20021;-77
2023/12/06 04:25:48;;;;;;;24.73;10.23;;;5.10;99.90;;;;;;5064700;28;20103;-77
2023/12/06 04:28:14;;;;;;;24.25;10.88;;;5.10;99.90;;;;;;5071220;28;20043;-77
2023/12/06 04:30:40;;;;;;;21.80;9.90;;;5.10;99.90;;;;;;5085954;28;20044;-77
2023/12/06 04:33:05;;;;;;;24.50;10.00;;;5.10;99.90;;;;;;5079862;28;20074;-77
2023/12/06 04:35:31;;;;;;;23.15;9.63;;;5.20;99.90;;;;;;5075144;28;20456;-77
2023/12/06 04:37:56;;;;;;;23.30;10.02;;;5.20;99.90;;;;;;5070160;28;20020;-77
2023/12/06 04:40:22;;;;;;;21.77;9.65;;;5.30;99.90;;;;;;5088482;28;20025;-77
2023/12/06 04:42:47;;;;;;;18.85;9.13;;;5.40;99.90;;;;;;5072560;28;20450;-77
2023/12/06 04:45:13;;;;;;;19.50;8.95;;;5.40;99.90;;;;;;5085270;28;20103;-77
2023/12/06 04:47:38;;;;;;;21.70;9.90;;;5.40;99.90;;;;;;5086830;28;20392;-77
2023/12/06 04:50:05;;;;;;;21.58;9.38;;;5.40;99.90;;;;;;5075784;28;20107;-77
2023/12/06 04:52:32;;;;;;;20.92;9.10;;;5.40;99.90;;;;;;5079170;28;20032;-77
2023/12/06 04:54:57;;;;;;;13.65;8.50;;;5.40;99.90;;;;;;5085948;28;20498;-77
2023/12/06 04:57:23;;;;;;;18.83;8.50;;;5.40;99.90;;;;;;5084714;28;20024;-77
2023/12/06 04:59:49;;;;;;;16.60;7.63;;;5.40;99.90;;;;;;5072452;28;20075;-77
2023/12/06 05:02:14;;;;;;;18.95;8.07;;;5.40;99.90;;;;;;5077128;28;20031;-77
2023/12/06 05:04:40;;;;;;;24.08;8.02;;;5.40;99.90;;;;;;5073942;28;20099;-77
2023/12/06 05:07:05;;;;;;;16.08;7.13;;;5.40;99.90;;;;;;5085930;28;20106;-77
2023/12/06 05:09:31;;;;;;;16.48;7.63;;;5.40;99.90;;;;;;5086709;28;20021;-77
2023/12/06 05:11:56;;;;;;;20.13;7.40;;;5.40;99.90;;;;;;5059654;28;20060;-77
2023/12/06 05:14:22;;;;;;;15.75;6.82;;;5.40;99.90;;;;;;5064876;28;20041;-77
2023/12/06 05:16:47;;;;;;;15.65;7.07;;;5.40;99.90;;;;;;5062162;28;20082;-77
2023/12/06 05:19:13;;;;;;;16.98;7.43;;;5.30;99.90;;;;;;5073702;28;20415;-77
2023/12/06 05:21:39;;;;;;;15.45;7.10;;;5.40;99.90;;;;;;5073516;28;20029;-77
2023/12/06 05:24:04;;;;;;;17.80;7.53;;;5.40;99.90;;;;;;5072476;28;20044;-77
2023/12/06 05:26:30;;;;;;;19.88;7.40;;;5.40;99.90;;;;;;5070246;28;20581;-77
2023/12/06 05:28:58;;;;;;;15.43;7.38;;;5.40;99.90;;;;;;5066532;28;20112;-77
2023/12/06 05:31:23;;;;;;;15.55;7.10;;;5.40;99.90;;;;;;5076718;28;20128;-77
2023/12/06 05:33:49;;;;;;;17.23;7.43;;;5.30;99.90;;;;;;5073071;28;20095;-77
2023/12/06 05:36:15;;;;;;;17.23;7.57;;;5.30;99.90;;;;;;5082306;28;20077;-77
2023/12/06 05:38:40;;;;;;;18.48;7.38;;;5.30;99.90;;;;;;5058867;28;20020;-77
2023/12/06 05:41:06;;;;;;;18.05;7.55;;;5.30;99.90;;;;;;5080416;28;20032;-77
2023/12/06 05:43:32;;;;;;;18.17;7.82;;;5.30;99.90;;;;;;5062505;28;20036;-77
2023/12/06 05:45:57;;;;;;;17.52;7.45;;;5.20;99.90;;;;;;5075560;28;20017;-77
2023/12/06 05:48:23;;;;;;;20.80;8.07;;;5.20;99.90;;;;;;5084643;28;20111;-77
2023/12/06 05:50:49;;;;;;;17.83;7.75;;;5.20;99.90;;;;;;5074551;28;20348;-77
2023/12/06 05:53:14;;;;;;;16.73;7.72;;;5.20;99.90;;;;;;5067633;28;20024;-77
2023/12/06 05:55:40;;;;;;;14.95;7.57;;;5.20;99.90;;;;;;5069065;28;20028;-77
2023/12/06 05:58:06;;;;;;;15.32;7.32;;;5.20;99.90;;;;;;5072228;28;20130;-77
2023/12/06 06:00:31;;;;;;;13.43;7.20;;;5.10;99.90;;;;;;5060970;28;20021;-77
2023/12/06 06:02:58;;;;;;;14.18;6.90;;;5.10;99.90;;;;;;5072803;28;20486;-77
2023/12/06 06:05:24;;;;;;;16.55;7.38;;;5.10;99.90;;;;;;5078325;28;20326;-77
2023/12/06 06:07:49;;;;;;;15.43;7.13;;;5.10;99.90;;;;;;5066244;28;20029;-77
2023/12/06 06:10:15;;;;;;;20.30;7.93;;;5.10;99.90;;;;;;5066201;28;20036;-77
2023/12/06 06:12:41;;;;;;;12.25;6.60;;;5.00;99.90;;;;;;5066115;28;20505;-77
2023/12/06 06:15:08;;;;;;;14.68;6.80;;;5.00;99.90;;;;;;5071705;28;20028;-77
2023/12/06 06:17:34;;;;;;;14.82;7.65;;;5.00;99.90;;;;;;5062357;28;20104;-78
2023/12/06 06:20:00;;;;;;;15.48;7.30;;;4.90;99.90;;;;;;5070588;28;20039;-77
2023/12/06 06:22:26;;;;;;;15.68;7.72;;;4.90;99.90;;;;;;5063406;28;20024;-77
2023/12/06 06:24:52;;;;;;;14.90;7.72;;;4.90;99.90;;;;;;5075650;28;20115;-77
2023/12/06 06:27:18;;;;;;;16.92;7.65;;;4.80;99.90;;;;;;5068981;28;20571;-77
2023/12/06 06:29:44;;;;;;;13.88;8.05;;;4.70;99.90;;;;;;5065236;28;20509;-77
2023/12/06 06:32:10;;;;;;;16.52;7.80;;;4.70;99.90;;;;;;5077247;28;20067;-77
2023/12/06 06:34:35;;;;;;;14.93;8.05;;;4.60;99.90;;;;;;5071608;28;20052;-77
2023/12/06 06:37:01;;;;;;;19.55;8.02;;;4.50;99.90;;;;;;5068943;28;20052;-77
2023/12/06 06:39:28;;;;;;;21.92;8.38;;;4.40;99.90;;;;;;5062543;28;20020;-77
2023/12/06 06:41:54;;;;;;;20.55;8.65;;;4.40;99.90;;;;;;5077265;28;20432;-77
2023/12/06 06:44:20;;;;;;;15.98;8.27;;;4.30;99.90;;;;;;5072426;28;20032;-77
2023/12/06 06:46:45;;;;;;;18.60;8.25;;;4.30;99.90;;;;;;5072640;28;20055;-77
2023/12/06 06:49:11;;;;;;;18.20;8.32;;;4.20;99.90;;;;;;5086386;28;20024;-77
2023/12/06 06:51:37;;;;;;;14.73;8.43;;;4.20;99.90;;;;;;5083587;28;20021;-77
2023/12/06 06:54:04;;;;;;;16.33;8.55;;;4.10;99.90;;;;;;5077892;28;20514;-77
2023/12/06 06:56:30;;;;;;;15.63;8.50;;;4.10;99.90;;;;;;5075084;28;20024;-77
2023/12/06 06:58:57;;;;;;;16.55;8.07;;;4.00;99.90;;;;;;5069814;28;20017;-78
2023/12/06 07:01:22;;;;;;;15.23;8.02;;;3.90;99.90;;;;;;5079673;28;20034;-77
2023/12/06 07:03:48;;;;;;;16.48;8.60;;;3.90;99.90;;;;;;5068026;28;20021;-77
2023/12/06 07:06:14;;;;;;;15.85;8.77;;;3.80;99.90;;;;;;5074450;28;20020;-77
2023/12/06 07:08:42;;;;;;;16.63;8.45;;;3.80;99.90;;;;;;5092833;28;20118;-77
2023/12/06 07:11:08;;;;;;;19.15;9.18;;;3.70;99.90;;;;;;5072869;28;20260;-77
2023/12/06 07:13:36;;;;;;;22.45;9.02;;;3.70;99.90;;;;;;5083752;28;20104;-77
2023/12/06 07:16:03;;;;;;;20.00;9.10;;;3.70;99.90;;;;;;5082774;28;20098;-77
2023/12/06 07:18:29;;;;;;;17.40;9.25;;;3.70;99.90;;;;;;5078885;28;20009;-77
2023/12/06 07:20:55;;;;;;;19.63;9.15;;;3.70;99.90;;;;;;5070571;28;20024;-77
2023/12/06 07:23:20;;;;;;;20.15;9.57;;;3.80;99.90;;;;;;5061078;28;20499;-78
2023/12/06 07:25:46;;;;;;;21.20;9.80;;;3.70;99.90;;;;;;5074869;28;20028;-77
2023/12/06 07:28:12;;;;;;;15.82;8.63;;;3.70;99.90;;;;;;5080026;28;20116;-77
2023/12/06 07:30:38;;;;;;;21.10;9.55;;;3.70;99.90;;;;;;5074769;28;20053;-77
2023/12/06 07:33:04;;;;;;;17.67;9.90;;;3.70;99.90;;;;;;5086413;28;20083;-77
2023/12/06 07:35:29;;;;;;;20.42;9.93;;;3.70;99.90;;;;;;5075061;28;20119;-77
2023/12/06 07:37:55;;;;;;;18.20;8.98;;;3.60;99.90;;;;;;5074319;28;20047;-77
2023/12/06 07:40:24;;;;;;;16.40;9.05;;;3.60;99.90;;;;;;5079038;28;20016;-77
2023/12/06 07:42:51;;;;;;;17.33;9.63;;;3.60;99.90;;;;;;5068369;28;20442;-77
2023/12/06 07:45:16;;;;;;;22.05;10.30;;;3.50;99.90;;;;;;5061026;28;20035;-77
2023/12/06 07:47:42;;;;;;;18.38;9.05;;;3.40;99.90;;;;;;5068968;28;20012;-77
2023/12/06 07:50:09;;;;;;;20.65;9.90;;;3.40;99.90;;;;;;5079234;28;20545;-77
2023/12/06 07:52:35;;;;;;;17.25;8.73;;;3.40;99.90;;;;;;5070715;28;20037;-77
2023/12/06 07:55:01;;;;;;;18.52;9.77;;;3.30;99.90;;;;;;5082095;28;20029;-77
2023/12/06 07:57:28;;;;;;;17.38;9.00;;;3.30;99.90;;;;;;5068310;28;20032;-77
2023/12/06 07:59:58;;;;;;;17.90;9.45;;;3.30;99.90;;;;;;5063343;28;20082;-77
2023/12/06 08:02:24;;;;;;;20.10;9.48;;;3.40;99.90;;;;;;5070150;28;20052;-77
2023/12/06 08:04:50;;;;;;;18.02;9.00;;;3.40;99.90;;;;;;5068812;28;20025;-77
2023/12/06 08:07:15;;;;;;;16.38;8.77;;;3.50;99.90;;;;;;5064012;28;20035;-77
2023/12/06 08:09:41;;;;;;;19.63;8.98;;;3.50;99.90;;;;;;5066019;28;20013;-77
2023/12/06 08:12:07;;;;;;;20.48;9.50;;;3.50;99.90;;;;;;5070247;28;20013;-77
2023/12/06 08:14:34;;;;;;;16.95;8.43;;;3.60;99.90;;;;;;5074706;28;20461;-77
2023/12/06 08:16:59;;;;;;;19.30;9.18;;;3.60;99.90;;;;;;5073205;28;20048;-78
2023/12/06 08:19:25;;;;;;;16.85;7.90;;;3.70;99.90;;;;;;5073023;28;20480;-77
2023/12/06 08:21:50;;;;;;;17.75;7.78;;;3.80;99.90;;;;;;5070181;28;20425;-78
2023/12/06 08:24:16;;;;;;;19.58;8.45;;;3.90;99.90;;;;;;5060002;28;20021;-77
2023/12/06 08:26:42;;;;;;;14.30;7.20;;;4.00;99.90;;;;;;5061304;28;20146;-77
2023/12/06 08:29:08;;;;;;;16.58;7.53;;;4.10;99.90;;;;;;5069053;28;20488;-77
2023/12/06 08:31:36;;;;;;;14.95;7.80;;;4.10;99.90;;;;;;5068114;28;20021;-77
2023/12/06 08:34:02;;;;;;;17.38;7.05;;;4.10;99.90;;;;;;5077591;28;20031;-77
2023/12/06 08:36:27;;;;;;;15.10;7.07;;;4.20;99.90;;;;;;5070154;28;20025;-77
2023/12/06 08:38:53;;;;;;;15.15;7.40;;;4.20;99.90;;;;;;5078087;28;20418;-77
2023/12/06 08:41:19;;;;;;;17.15;8.10;;;4.30;99.90;;;;;;5071802;28;20395;-77
2023/12/06 08:43:45;;;;;;;18.13;7.70;;;4.30;99.90;;;;;;5069764;28;20117;-76
2023/12/06 08:46:11;;;;;;;14.07;7.53;;;4.30;99.90;;;;;;5064373;28;20499;-77
2023/12/06 08:48:37;;;;;;;14.70;7.38;;;4.30;99.90;;;;;;5077049;28;20107;-77
2023/12/06 08:51:02;;;;;;;20.92;8.20;;;4.30;99.90;;;;;;5071150;28;20024;-77
2023/12/06 08:53:28;;;;;;;15.90;8.07;;;4.40;99.90;;;;;;5072295;28;20438;-77
2023/12/06 08:55:54;;;;;;;15.35;7.65;;;4.40;99.90;;;;;;5065898;28;20051;-77
2023/12/06 08:58:20;;;;;;;13.43;7.47;;;4.50;99.90;;;;;;5071499;28;20031;-77
2023/12/06 09:00:46;;;;;;;18.13;8.05;;;4.50;99.90;;;;;;5077858;28;20103;-77
2023/12/06 09:03:12;;;;;;;22.02;8.75;;;4.60;99.90;;;;;;5065216;28;20029;-77
2023/12/06 09:05:38;;;;;;;16.17;7.60;;;4.60;99.90;;;;;;5054430;28;20028;-77
2023/12/06 09:08:05;;;;;;;17.45;8.00;;;4.70;99.90;;;;;;5065050;28;20081;-77
2023/12/06 09:10:30;;;;;;;17.67;7.40;;;4.70;99.90;;;;;;5063223;28;20025;-77
2023/12/06 09:12:56;;;;;;;18.08;7.55;;;4.80;99.90;;;;;;5063628;28;20032;-77
2023/12/06 09:15:22;;;;;;;16.10;7.47;;;4.80;99.90;;;;;;5063200;28;20131;-77
2023/12/06 09:17:48;;;;;;;14.32;7.68;;;4.90;99.90;;;;;;5057974;28;20567;-77
2023/12/06 09:20:15;;;;;;;16.40;7.40;;;4.90;99.90;;;;;;5069392;28;20369;-77
2023/12/06 09:22:41;;;;;;;14.50;7.38;;;5.00;99.90;;;;;;5060808;28;20027;-77
2023/12/06 09:25:07;;;;;;;13.27;7.63;;;5.10;99.90;;;;;;5063534;28;20017;-77
2023/12/06 09:27:33;;;;;;;15.57;7.18;;;5.10;99.90;;;;;;5057453;28;20035;-77
2023/12/06 09:29:58;;;;;;;15.45;6.80;;;5.20;99.90;;;;;;5063877;28;20044;-76
2023/12/06 09:32:24;;;;;;;13.05;7.05;;;5.20;99.90;;;;;;5065129;28;20085;-77
2023/12/06 09:34:50;;;;;;;13.35;7.32;;;5.30;99.90;;;;;;5068111;28;20021;-77
2023/12/06 09:37:16;;;;;;;16.70;7.18;;;5.30;99.90;;;;;;5064310;28;20447;-77
2023/12/06 09:39:42;;;;;;;14.93;6.90;;;5.30;99.90;;;;;;5059662;28;20036;-77
2023/12/06 09:42:07;;;;;;;10.98;6.85;;;5.40;99.90;;;;;;5059706;28;20487;-77
2023/12/06 09:44:36;;;;;;;17.77;7.13;;;5.40;99.90;;;;;;5059451;28;20530;-77
2023/12/06 09:47:02;;;;;;;14.65;8.05;;;5.40;99.90;;;;;;5067421;28;20050;-77
2023/12/06 09:49:28;;;;;;;12.93;7.43;;;5.40;99.90;;;;;;5065631;28;20059;-77
2023/12/06 09:52:10;;;;;;;15.45;7.05;;;5.50;99.90;;;;;;5065761;28;20025;-77
2023/12/06 09:54:42;;;;;;;17.73;7.35;;;5.60;99.90;;;;;;5062663;28;20036;-78
2023/12/06 09:57:08;;;;;;;11.73;6.70;;;5.60;99.90;;;;;;5062669;28;20052;-77
2023/12/06 09:59:33;;;;;;;14.30;6.63;;;5.70;99.90;;;;;;5066253;28;20028;-77
2023/12/06 10:01:59;;;;;;;16.65;7.88;;;5.70;99.90;;;;;;5066615;28;20024;-77
2023/12/06 10:04:25;;;;;;;11.50;6.82;;;5.80;99.90;;;;;;5065619;28;20506;-77
2023/12/06 10:06:51;;;;;;;14.23;6.88;;;5.80;99.90;;;;;;5082335;28;20078;-77
2023/12/06 10:09:16;;;;;;;17.05;6.93;;;5.80;99.90;;;;;;5074109;28;20486;-77
2023/12/06 10:11:42;;;;;;;13.57;7.20;;;5.90;99.90;;;;;;5079071;28;20027;-77
2023/12/06 10:14:18;;;;;;;12.85;6.50;;;5.90;99.90;;;;;;5076761;28;20032;-77
2023/12/06 10:16:45;;;;;;;12.82;6.10;;;6.00;99.90;;;;;;5070620;28;20525;-77
2023/12/06 10:19:11;;;;;;;14.60;6.35;;;6.00;99.90;;;;;;5086577;28;20487;-77
2023/12/06 10:21:39;;;;;;;14.50;6.68;;;6.00;99.90;;;;;;5069714;28;20027;-77
2023/12/06 10:24:07;;;;;;;11.38;6.25;;;6.10;99.90;;;;;;5074766;28;20542;-77
2023/12/06 10:26:33;;;;;;;9.82;5.85;;;6.10;99.90;;;;;;5076271;28;20236;-77
2023/12/06 10:28:59;;;;;;;17.42;6.22;;;6.20;99.90;;;;;;5081806;28;20024;-77
2023/12/06 10:31:25;;;;;;;10.13;5.80;;;6.30;99.90;;;;;;5067653;28;20334;-77
2023/12/06 10:33:56;;;;;;;14.00;5.80;;;6.40;99.90;;;;;;5064801;28;20060;-77
2023/12/06 10:36:25;;;;;;;12.40;5.32;;;6.50;99.90;;;;;;5065154;28;20081;-77
2023/12/06 10:38:51;;;;;;;10.30;5.40;;;6.50;99.90;;;;;;5063449;28;20025;-77
2023/12/06 10:41:20;;;;;;;12.45;5.25;;;6.60;99.90;;;;;;5066396;28;20543;-77
2023/12/06 10:43:47;;;;;;;12.10;5.05;;;6.60;99.90;;;;;;5062497;28;20021;-77
2023/12/06 10:46:14;;;;;;;10.52;4.95;;;6.70;99.90;;;;;;5076649;28;20084;-77
2023/12/06 10:48:40;;;;;;;11.48;5.30;;;6.80;99.90;;;;;;5075054;28;20031;-77
2023/12/06 10:51:08;;;;;;;8.13;4.32;;;6.90;99.90;;;;;;5070336;28;20020;-77
2023/12/06 10:53:33;;;;;;;11.27;4.72;;;6.90;99.90;;;;;;5074900;28;20027;-77
2023/12/06 10:56:01;;;;;;;9.63;4.38;;;7.00;99.90;;;;;;5066953;28;20017;-77
2023/12/06 10:58:27;;;;;;;11.77;4.00;;;7.10;99.90;;;;;;5067356;28;20114;-77
2023/12/06 11:00:53;;;;;;;7.65;4.22;;;7.20;99.90;;;;;;5058882;28;20460;-77
2023/12/06 11:03:19;;;;;;;9.10;4.07;;;7.20;99.90;;;;;;5077248;28;20398;-76
2023/12/06 11:05:48;;;;;;;13.18;4.18;;;7.20;99.90;;;;;;5062150;28;20025;-77
2023/12/06 11:08:29;;;;;;;8.57;4.18;;;7.30;99.90;;;;;;5067141;28;20040;-77
2023/12/06 11:11:07;;;;;;;10.07;3.97;;;7.30;99.90;;;;;;5080759;28;20503;-77
2023/12/06 11:13:58;;;;;;;9.15;3.63;;;7.40;99.90;;;;;;5063970;28;20024;-77
2023/12/06 11:16:27;;;;;;;11.25;3.72;;;7.50;99.90;;;;;;5067161;28;20064;-77
2023/12/06 11:18:54;;;;;;;10.20;3.70;;;7.50;99.90;;;;;;5075375;28;20032;-77
2023/12/06 11:21:21;;;;;;;7.32;3.22;;;7.60;99.90;;;;;;5055454;28;20056;-77
2023/12/06 11:23:47;;;;;;;9.65;3.75;;;7.70;99.90;;;;;;5061481;28;20086;-77
2023/12/06 11:26:13;;;;;;;11.02;3.33;;;7.70;99.90;;;;;;5063533;28;20454;-77
2023/12/06 11:28:40;;;;;;;6.78;2.95;;;7.70;99.90;;;;;;5060557;28;20108;-77
2023/12/06 11:31:07;;;;;;;8.13;2.95;;;7.70;99.90;;;;;;5066037;28;20090;-77
2023/12/06 11:33:34;;;;;;;8.13;2.75;;;7.70;99.90;;;;;;5067933;28;20100;-78
2023/12/06 11:35:59;;;;;;;6.35;2.70;;;7.60;99.90;;;;;;5067212;28;20025;-77
2023/12/06 11:38:35;;;;;;;5.72;2.50;;;7.60;99.90;;;;;;5062895;28;20025;-77
2023/12/06 11:41:02;;;;;;;6.60;2.72;;;7.50;99.90;;;;;;5066837;28;20025;-77
2023/12/06 11:43:33;;;;;;;6.45;2.63;;;7.50;99.90;;;;;;5057644;28;20019;-77
2023/12/06 11:46:07;;;;;;;5.10;2.42;;;7.50;99.90;;;;;;5067082;28;20025;-77
2023/12/06 11:48:36;;;;;;;4.93;2.67;;;7.60;99.90;;;;;;5064102;28;20020;-77
2023/12/06 11:51:03;;;;;;;7.32;2.72;;;7.60;99.90;;;;;;5060915;28;20029;-77
2023/12/06 11:53:29;;;;;;;5.97;3.00;;;7.60;99.90;;;;;;5064501;28;20395;-77
2023/12/06 11:55:55;;;;;;;5.88;2.70;;;7.60;99.90;;;;;;5060887;28;20021;-77
2023/12/06 11:58:21;;;;;;;6.78;2.50;;;7.70;99.90;;;;;;5060757;28;20068;-77
2023/12/06 12:00:51;;;;;;;5.75;2.58;;;7.70;99.90;;;;;;5065068;28;20051;-78
2023/12/06 12:03:17;;;;;;;7.72;2.72;;;7.80;99.90;;;;;;5071026;28;20653;-77
2023/12/06 12:05:43;;;;;;;10.25;3.20;;;7.90;99.90;;;;;;5062757;28;20101;-77
2023/12/06 12:08:10;;;;;;;10.70;3.20;;;7.90;99.90;;;;;;5065094;28;20032;-77
2023/12/06 12:10:36;;;;;;;7.15;3.10;;;8.00;99.90;;;;;;5068299;28;20074;-77
2023/12/06 12:13:02;;;;;;;11.75;3.65;;;8.00;99.90;;;;;;5064777;28;20526;-77
2023/12/06 12:15:29;;;;;;;9.18;2.97;;;8.10;99.90;;;;;;5066510;28;20045;-77
2023/12/06 12:17:56;;;;;;;8.68;2.80;;;8.10;99.90;;;;;;5068283;28;20459;-77
2023/12/06 12:20:22;;;;;;;8.15;3.15;;;8.20;99.90;;;;;;5079508;28;20028;-77
2023/12/06 12:22:52;;;;;;;8.00;2.97;;;8.10;99.90;;;;;;5082197;28;20016;-77
2023/12/06 12:25:19;;;;;;;9.18;2.85;;;8.10;99.90;;;;;;5061229;28;20031;-77
2023/12/06 12:27:48;;;;;;;10.23;2.88;;;8.10;99.90;;;;;;5068760;28;20536;-78
2023/12/06 12:30:14;;;;;;;6.20;2.67;;;8.10;99.90;;;;;;5077168;28;20029;-77
2023/12/06 12:32:46;;;;;;;8.38;2.60;;;8.00;99.90;;;;;;5089241;28;20019;-77
2023/12/06 12:35:12;;;;;;;4.45;2.28;;;8.00;99.90;;;;;;5080142;28;20028;-77
2023/12/06 12:37:38;;;;;;;6.07;2.40;;;8.00;99.90;;;;;;5072250;28;20020;-78